Time;durP1;ratioP1;P1;durP2;ratioP2;P2;SDS_P1;SDS_P2;PMS_P1;PMS_P2;Temp;Humidity;BMP_temperature;BMP_pressure;BME280_temperature;BME280_humidity;BME280_pressure;Samples;Min_cycle;Max_cycle;Signal;HPM_P1;HPM_P2
2021/11/05 00:01:24;;;;;;;20.23;12.40;;;;;;;12.72;77.38;93668.53;5105294;28;20478;-45
2021/11/05 00:03:50;;;;;;;23.80;13.30;;;;;;;12.74;77.79;93667.97;5092314;28;20024;-46
2021/11/05 00:06:15;;;;;;;20.80;11.98;;;;;;;12.74;77.68;93665.19;5092169;28;20032;-43
2021/11/05 00:08:41;;;;;;;16.45;12.18;;;;;;;12.62;78.35;93667.63;5091879;28;20157;-45
2021/11/05 00:11:06;;;;;;;16.42;11.00;;;;;;;12.75;77.96;93664.66;5092225;28;20024;-44
2021/11/05 00:13:32;;;;;;;17.73;10.90;;;;;;;12.76;77.45;93660.56;5091624;28;20016;-45
2021/11/05 00:15:57;;;;;;;17.85;12.13;;;;;;;12.65;78.29;93663.72;5110234;28;20028;-44
2021/11/05 00:18:23;;;;;;;18.77;11.32;;;;;;;12.66;78.48;93658.94;5111914;28;20027;-44
2021/11/05 00:20:48;;;;;;;19.38;12.63;;;;;;;12.69;78.54;93666.13;5111524;28;20031;-44
2021/11/05 00:23:16;;;;;;;20.88;12.48;;;;;;;12.58;77.95;93661.69;5112042;28;20024;-45
2021/11/05 00:25:42;;;;;;;18.05;11.68;;;;;;;12.59;78.21;93663.19;5111677;28;20027;-50
2021/11/05 00:28:08;;;;;;;19.77;12.27;;;;;;;12.66;77.73;93659.69;5111712;27;20122;-47
2021/11/05 00:30:33;;;;;;;18.80;11.57;;;;;;;12.68;77.86;93653.56;5112058;28;20038;-45
2021/11/05 00:32:58;;;;;;;24.00;14.00;;;;;;;12.50;78.27;93657.47;5111603;28;20088;-47
2021/11/05 00:35:24;;;;;;;20.50;12.02;;;;;;;12.55;78.13;93662.84;5112195;28;20047;-46
2021/11/05 00:37:50;;;;;;;21.67;11.55;;;;;;;12.59;78.60;93656.91;5112026;28;20110;-46
2021/11/05 00:40:16;;;;;;;20.20;13.25;;;;;;;12.65;78.66;93662.97;5111733;28;20035;-45
2021/11/05 00:42:42;;;;;;;23.42;11.63;;;;;;;12.59;78.84;93660.41;5111712;28;20055;-45
2021/11/05 00:45:08;;;;;;;21.27;12.25;;;;;;;12.56;79.23;93652.50;5111253;28;20023;-47
2021/11/05 00:47:33;;;;;;;15.43;10.68;;;;;;;12.60;79.15;93659.13;5110762;28;20039;-47
2021/11/05 00:49:58;;;;;;;20.00;10.93;;;;;;;12.56;79.37;93641.41;5111429;28;20027;-47
2021/11/05 00:52:24;;;;;;;15.40;10.30;;;;;;;12.60;78.67;93648.06;5105393;28;20515;-46
2021/11/05 00:54:49;;;;;;;17.33;11.20;;;;;;;12.65;78.37;93654.69;5111630;28;20054;-45
2021/11/05 00:57:15;;;;;;;17.35;11.10;;;;;;;12.68;78.76;93631.41;5111770;28;20096;-44
2021/11/05 00:59:40;;;;;;;24.85;11.07;;;;;;;12.60;78.54;93634.22;5111570;28;20427;-45
2021/11/05 01:02:06;;;;;;;17.98;11.55;;;;;;;12.57;79.11;93637.34;5111194;28;20027;-46
2021/11/05 01:04:32;;;;;;;19.88;12.25;;;;;;;12.28;79.69;93636.09;5110934;28;20039;-45
2021/11/05 01:06:57;;;;;;;18.60;11.05;;;;;;;12.32;80.10;93661.38;5110810;28;20043;-45
2021/11/05 01:09:23;;;;;;;19.88;12.13;;;;;;;12.34;80.51;93612.47;5111013;28;20050;-47
2021/11/05 01:11:49;;;;;;;16.83;10.93;;;;;;;12.40;80.00;93640.72;5111035;28;20072;-47
2021/11/05 01:14:14;;;;;;;18.67;11.13;;;;;;;12.36;80.24;93642.38;5111050;28;20413;-45
2021/11/05 01:16:40;;;;;;;17.42;11.27;;;;;;;12.40;79.75;93635.16;5110765;28;20545;-45
2021/11/05 01:19:05;;;;;;;16.25;11.35;;;;;;;12.48;79.47;93626.84;5110743;28;20046;-46
2021/11/05 01:21:31;;;;;;;17.13;10.68;;;;;;;12.50;79.80;93629.78;5111176;28;20076;-46
2021/11/05 01:23:56;;;;;;;17.23;11.40;;;;;;;12.47;79.88;93622.59;5111166;28;20113;-46
2021/11/05 01:26:22;;;;;;;20.00;10.02;;;;;;;12.50;79.79;93622.22;5110716;28;20043;-46
2021/11/05 01:28:47;;;;;;;18.23;9.80;;;;;;;12.48;79.92;93624.06;5110599;28;20051;-46
2021/11/05 01:31:13;;;;;;;18.58;10.23;;;;;;;12.42;80.14;93631.84;5100374;28;20093;-45
2021/11/05 01:33:39;;;;;;;17.25;9.00;;;;;;;12.50;79.74;93632.56;5094257;28;20032;-45
2021/11/05 01:36:04;;;;;;;17.30;10.85;;;;;;;12.57;79.15;93629.03;5090162;28;20499;-45
2021/11/05 01:38:30;;;;;;;15.98;10.90;;;;;;;12.55;79.09;93631.63;5093060;28;20032;-47
2021/11/05 01:40:55;;;;;;;15.00;10.43;;;;;;;12.46;79.40;93637.72;5091793;28;20640;-47
2021/11/05 01:43:21;;;;;;;18.20;11.38;;;;;;;12.31;79.91;93616.34;5107703;28;20023;-47
2021/11/05 01:45:48;;;;;;;19.67;10.60;;;;;;;12.43;80.36;93638.84;5110602;28;20020;-46
2021/11/05 01:48:14;;;;;;;17.27;10.98;;;;;;;12.39;80.71;93627.44;5097924;28;20768;-45
2021/11/05 01:50:39;;;;;;;15.88;10.63;;;;;;;12.35;80.68;93644.41;5109462;28;20027;-45
2021/11/05 01:53:05;;;;;;;18.35;11.77;;;;;;;12.42;80.62;93632.56;5089902;28;20020;-45
2021/11/05 01:55:30;;;;;;;17.55;10.35;;;;;;;12.42;80.42;93623.53;5089013;28;20028;-46
2021/11/05 01:57:56;;;;;;;19.33;11.48;;;;;;;12.44;79.81;93640.31;5089612;28;20062;-48
2021/11/05 02:00:24;;;;;;;19.63;12.00;;;;;;;12.37;80.49;93641.06;5090162;28;20509;-46
2021/11/05 02:02:50;;;;;;;21.55;11.18;;;;;;;12.38;81.03;93614.88;5099856;28;20020;-44
2021/11/05 02:05:16;;;;;;;15.68;10.27;;;;;;;12.37;80.86;93600.28;5090054;28;20055;-46
2021/11/05 02:07:51;;;;;;;18.27;10.57;;;;;;;12.28;80.96;93625.03;5094134;28;20479;-45
2021/11/05 02:10:18;;;;;;;16.83;10.90;;;;;;;12.38;80.56;93626.69;5089901;28;20051;-46
2021/11/05 02:12:44;;;;;;;17.20;10.75;;;;;;;12.32;80.61;93617.09;5089887;28;20412;-45
2021/11/05 02:15:10;;;;;;;16.73;9.82;;;;;;;12.41;80.18;93620.00;5101808;28;20028;-46
2021/11/05 02:17:37;;;;;;;18.75;10.80;;;;;;;12.33;79.99;93622.06;5110332;28;20044;-45
2021/11/05 02:20:06;;;;;;;18.90;11.25;;;;;;;12.34;79.81;93620.78;5110345;28;20507;-45
2021/11/05 02:22:31;;;;;;;20.40;11.07;;;;;;;12.27;79.84;93615.25;5110051;28;20032;-47
2021/11/05 02:24:57;;;;;;;18.45;11.20;;;;;;;12.17;80.31;93617.84;5110087;28;20042;-45
2021/11/05 02:27:22;;;;;;;14.80;9.65;;;;;;;12.14;80.82;93630.78;5109506;28;20059;-47
2021/11/05 02:29:48;;;;;;;15.07;10.25;;;;;;;11.99;80.97;93630.03;5109820;28;20127;-48
2021/11/05 02:32:14;;;;;;;23.20;11.65;;;;;;;11.92;80.88;93603.84;5109935;28;20023;-45
2021/11/05 02:34:39;;;;;;;18.38;10.77;;;;;;;12.00;80.09;93628.72;5100687;28;20035;-47
2021/11/05 02:37:05;;;;;;;16.92;10.18;;;;;;;11.92;80.82;93625.97;5089184;28;20027;-46
2021/11/05 02:39:34;;;;;;;21.85;11.80;;;;;;;11.66;81.30;93606.19;5094475;28;20064;-45
2021/11/05 02:42:01;;;;;;;14.85;10.25;;;;;;;11.84;81.04;93607.91;5089131;28;20103;-45
2021/11/05 02:44:26;;;;;;;18.27;10.85;;;;;;;11.85;80.48;93612.88;5095244;28;20024;-45
2021/11/05 02:46:54;;;;;;;16.52;10.32;;;;;;;11.93;80.13;93616.38;5109590;28;20046;-44
2021/11/05 02:49:20;;;;;;;15.13;10.05;;;;;;;11.81;79.82;93587.59;5109630;28;20520;-45
2021/11/05 02:51:48;;;;;;;17.00;10.45;;;;;;;11.89;79.87;93627.06;5099720;28;20107;-44
2021/11/05 02:54:14;;;;;;;15.75;10.25;;;;;;;11.70;79.61;93590.72;5108015;28;20564;-47
2021/11/05 02:56:39;;;;;;;19.13;10.95;;;;;;;11.71;80.31;93616.38;5109715;28;20016;-46
2021/11/05 02:59:05;;;;;;;15.05;9.05;;;;;;;11.69;79.96;93616.19;5109853;28;20023;-46
2021/11/05 03:01:32;;;;;;;15.07;9.65;;;;;;;11.65;80.51;93616.50;5110069;28;20024;-45
2021/11/05 03:04:05;;;;;;;15.45;10.05;;;;;;;11.58;82.05;93606.19;5109889;28;20042;-47
2021/11/05 03:06:39;;;;;;;16.27;9.85;;;;;;;11.56;82.97;93617.06;5108728;28;20031;-44
2021/11/05 03:09:12;;;;;;;17.35;10.60;;;;;;;11.57;83.60;93615.78;5110628;28;20023;-45
2021/11/05 03:11:38;;;;;;;18.98;11.18;;;;;;;11.67;83.27;93622.28;5113467;28;20020;-47
2021/11/05 03:14:04;;;;;;;20.75;10.95;;;;;;;11.66;82.37;93637.34;5113077;28;20037;-46
2021/11/05 03:16:30;;;;;;;11.15;8.77;;;;;;;11.82;82.40;93627.06;5113849;28;20012;-45
2021/11/05 03:18:55;;;;;;;13.77;9.90;;;;;;;11.74;80.27;93629.81;5112966;28;20034;-45
2021/11/05 03:21:20;;;;;;;14.27;8.73;;;;;;;11.72;80.99;93629.63;5113078;28;20061;-45
2021/11/05 03:23:46;;;;;;;19.58;9.80;;;;;;;11.63;81.01;93621.84;5113580;28;20034;-46
2021/11/05 03:26:12;;;;;;;15.23;9.75;;;;;;;11.52;81.82;93616.66;5112758;28;20054;-48
2021/11/05 03:28:38;;;;;;;19.52;11.00;;;;;;;11.60;80.91;93627.75;5112558;28;20034;-46
2021/11/05 03:31:04;;;;;;;15.93;9.90;;;;;;;11.55;80.36;93614.84;5112132;28;20404;-46
2021/11/05 03:33:29;;;;;;;18.80;10.30;;;;;;;11.19;81.37;93626.03;5112998;28;20023;-46
2021/11/05 03:35:55;;;;;;;16.48;10.10;;;;;;;11.25;81.10;93629.34;5113008;28;20031;-44
2021/11/05 03:38:21;;;;;;;17.40;10.80;;;;;;;11.03;81.26;93630.00;5113118;28;20511;-46
2021/11/05 03:40:46;;;;;;;18.02;9.57;;;;;;;11.09;82.05;93628.56;5106293;28;20110;-44
2021/11/05 03:43:12;;;;;;;16.95;10.20;;;;;;;11.05;81.16;93613.63;5092389;28;20028;-45
2021/11/05 03:45:37;;;;;;;17.15;9.63;;;;;;;11.17;80.01;93634.13;5092548;28;20042;-44
2021/11/05 03:48:03;;;;;;;17.58;10.88;;;;;;;11.00;80.75;93634.59;5092196;28;20412;-43
2021/11/05 03:50:28;;;;;;;19.65;10.95;;;;;;;10.93;81.04;93632.56;5092029;28;20544;-45
2021/11/05 03:52:54;;;;;;;19.70;10.75;;;;;;;10.90;80.18;93638.44;5092191;28;20020;-44
2021/11/05 03:55:20;;;;;;;17.13;10.70;;;;;;;10.56;82.09;93631.09;5092072;28;20531;-42
2021/11/05 03:57:45;;;;;;;19.02;10.18;;;;;;;10.60;83.14;93628.72;5091917;28;20038;-43
2021/11/05 04:00:11;;;;;;;19.17;11.30;;;;;;;10.22;82.11;93608.44;5092207;28;20020;-43
2021/11/05 04:02:37;;;;;;;15.80;10.27;;;;;;;10.17;83.48;93633.44;5092346;28;20409;-44
2021/11/05 04:05:04;;;;;;;24.25;11.85;;;;;;;10.26;83.84;93625.41;5092260;28;20035;-44
2021/11/05 04:07:30;;;;;;;17.02;10.82;;;;;;;10.13;84.37;93628.28;5091870;28;20017;-45
2021/11/05 04:09:55;;;;;;;18.63;10.85;;;;;;;10.28;84.62;93630.38;5092077;28;20024;-43
2021/11/05 04:12:21;;;;;;;17.23;10.10;;;;;;;10.27;84.29;93618.59;5091872;28;20069;-44
2021/11/05 04:14:46;;;;;;;19.15;11.25;;;;;;;10.37;83.01;93614.03;5100262;28;20027;-44
2021/11/05 04:17:13;;;;;;;17.67;10.35;;;;;;;10.45;84.55;93620.38;5112005;28;20031;-45
2021/11/05 04:19:40;;;;;;;15.30;9.38;;;;;;;10.52;84.95;93613.41;5112299;28;20050;-43
2021/11/05 04:22:06;;;;;;;16.88;11.60;;;;;;;10.49;84.09;93614.50;5112119;28;20118;-44
2021/11/05 04:24:31;;;;;;;156.30;69.63;;;;;;;10.41;84.21;93622.00;5111422;28;20080;-44
2021/11/05 04:26:57;;;;;;;152.77;71.22;;;;;;;10.41;83.79;93608.94;5111585;28;20051;-44
2021/11/05 04:29:22;;;;;;;93.72;47.70;;;;;;;10.20;84.47;93615.81;5112154;28;20599;-45
2021/11/05 04:31:48;;;;;;;66.97;33.55;;;;;;;10.36;83.66;93611.84;5111736;28;20027;-45
2021/11/05 04:34:13;;;;;;;36.95;21.92;;;;;;;10.34;83.24;93603.38;5111910;28;20028;-43
2021/11/05 04:36:39;;;;;;;26.90;15.35;;;;;;;10.42;82.77;93617.94;5108635;28;20020;-44
2021/11/05 04:39:05;;;;;;;27.17;15.05;;;;;;;10.52;82.62;93613.41;5091239;28;20118;-43
2021/11/05 04:41:31;;;;;;;21.70;12.25;;;;;;;10.53;82.55;93599.06;5106793;28;20073;-43
2021/11/05 04:43:56;;;;;;;19.55;12.00;;;;;;;10.58;82.48;93617.50;5111661;28;20023;-44
2021/11/05 04:46:22;;;;;;;22.23;11.18;;;;;;;10.57;83.76;93593.91;5111343;28;20042;-45
2021/11/05 04:48:48;;;;;;;18.08;9.82;;;;;;;10.72;85.34;93618.09;5103241;28;20051;-45
2021/11/05 04:51:13;;;;;;;14.25;9.45;;;;;;;10.83;85.95;93615.00;5102672;28;20016;-44
2021/11/05 04:53:39;;;;;;;18.00;10.00;;;;;;;10.90;85.64;93621.84;5091198;28;20051;-46
2021/11/05 04:56:05;;;;;;;15.55;9.43;;;;;;;11.00;85.13;93622.81;5105640;28;20020;-45
2021/11/05 04:58:31;;;;;;;16.90;9.00;;;;;;;11.02;85.80;93611.97;5111273;28;20091;-44
2021/11/05 05:00:57;;;;;;;18.05;9.38;;;;;;;11.16;85.47;93608.50;5111180;28;20023;-44
2021/11/05 05:03:22;;;;;;;20.67;10.80;;;;;;;11.18;84.92;93611.44;5111489;28;20019;-43
2021/11/05 05:05:47;;;;;;;17.77;10.02;;;;;;;11.26;84.72;93619.78;5111192;28;20444;-43
2021/11/05 05:08:13;;;;;;;14.82;8.65;;;;;;;11.25;85.00;93613.50;5096590;28;20437;-46
2021/11/05 05:10:39;;;;;;;15.10;8.45;;;;;;;11.31;84.32;93621.63;5090600;28;20064;-47
2021/11/05 05:13:04;;;;;;;12.98;9.13;;;;;;;11.41;83.85;93617.03;5090554;28;20103;-44
2021/11/05 05:15:29;;;;;;;13.70;8.25;;;;;;;11.55;83.52;93629.41;5104906;28;20027;-44
2021/11/05 05:17:55;;;;;;;14.40;8.32;;;;;;;11.69;82.68;93627.25;5111335;28;20681;-44
2021/11/05 05:20:21;;;;;;;18.98;8.18;;;;;;;11.67;82.70;93638.88;5111244;28;20099;-43
2021/11/05 05:22:47;;;;;;;15.98;9.55;;;;;;;11.64;82.95;93636.44;5110713;28;20401;-45
2021/11/05 05:25:14;;;;;;;18.40;10.38;;;;;;;11.77;82.26;93648.09;5110728;28;20024;-45
2021/11/05 05:27:40;;;;;;;15.95;9.40;;;;;;;11.89;81.88;93646.44;5110677;28;20039;-46
2021/11/05 05:30:08;;;;;;;18.08;9.90;;;;;;;11.94;81.71;93655.84;5110764;28;20079;-45
2021/11/05 05:32:34;;;;;;;20.08;9.77;;;;;;;11.95;82.01;93657.34;5109740;28;20656;-46
2021/11/05 05:35:00;;;;;;;15.07;9.65;;;;;;;11.87;82.50;93656.56;5090333;28;20035;-43
2021/11/05 05:37:25;;;;;;;13.13;8.35;;;;;;;11.90;82.38;93653.47;5090418;28;20053;-46
2021/11/05 05:39:51;;;;;;;15.38;9.00;;;;;;;11.97;81.93;93649.22;5090335;28;20389;-43
2021/11/05 05:42:17;;;;;;;19.08;9.30;;;;;;;11.95;81.57;93637.97;5089277;28;20055;-43
2021/11/05 05:44:42;;;;;;;14.85;8.40;;;;;;;12.19;80.94;93657.50;5103905;28;20023;-44
2021/11/05 05:47:08;;;;;;;17.27;8.90;;;;;;;12.24;80.31;93644.03;5110336;28;20026;-44
2021/11/05 05:49:34;;;;;;;16.25;8.07;;;;;;;12.41;79.81;93644.22;5110207;28;20034;-44
2021/11/05 05:51:59;;;;;;;11.40;8.18;;;;;;;12.40;79.95;93642.72;5110536;28;20055;-45
2021/11/05 05:54:25;;;;;;;18.08;7.68;;;;;;;12.51;79.55;93639.56;5110654;27;20114;-44
2021/11/05 05:56:50;;;;;;;10.95;7.55;;;;;;;12.58;79.05;93647.13;5110464;28;20012;-43
2021/11/05 05:59:15;;;;;;;21.70;10.38;;;;;;;12.54;79.46;93649.56;5110483;28;20420;-45
2021/11/05 06:01:41;;;;;;;21.60;14.43;;;;;;;12.63;79.04;93641.38;5110381;28;20509;-47
2021/11/05 06:04:06;;;;;;;16.65;7.75;;;;;;;12.74;78.15;93651.34;5110116;28;20116;-45
2021/11/05 06:06:32;;;;;;;14.20;7.03;;;;;;;12.80;77.70;93649.09;5110358;28;20028;-43
2021/11/05 06:08:58;;;;;;;14.27;7.85;;;;;;;12.72;77.52;93626.22;5110430;28;20553;-45
2021/11/05 06:11:24;;;;;;;11.43;6.70;;;;;;;12.96;77.21;93656.06;5110511;28;20020;-44
2021/11/05 06:13:50;;;;;;;12.98;7.57;;;;;;;12.98;77.16;93664.56;5109805;28;20103;-44
2021/11/05 06:16:15;;;;;;;11.93;7.65;;;;;;;13.10;76.99;93667.72;5110030;28;20016;-45
2021/11/05 06:18:41;;;;;;;15.63;7.22;;;;;;;13.29;76.22;93681.88;5109997;28;20031;-44
2021/11/05 06:21:06;;;;;;;14.65;8.73;;;;;;;13.29;76.00;93687.41;5110099;28;20032;-44
2021/11/05 06:23:32;;;;;;;22.15;11.98;;;;;;;13.46;75.26;93681.97;5110071;28;20038;-45
2021/11/05 06:25:58;;;;;;;30.05;15.18;;;;;;;13.55;74.93;93692.47;5105534;28;20027;-48
2021/11/05 06:28:24;;;;;;;37.72;21.27;;;;;;;13.73;74.12;93699.56;5108670;28;20047;-47
2021/11/05 06:30:49;;;;;;;28.48;16.90;;;;;;;13.77;73.71;93679.78;5092070;28;20028;-45
2021/11/05 06:33:15;;;;;;;26.73;12.18;;;;;;;13.91;73.08;93690.03;5089312;28;20530;-45
2021/11/05 06:35:41;;;;;;;26.63;13.55;;;;;;;13.97;73.02;93675.94;5088950;28;20034;-45
2021/11/05 06:38:06;;;;;;;19.00;10.68;;;;;;;14.14;72.59;93693.38;5088372;28;20127;-45
2021/11/05 06:40:32;;;;;;;16.77;10.10;;;;;;;14.26;71.96;93694.44;5085495;28;20085;-47
2021/11/05 06:42:57;;;;;;;22.42;13.30;;;;;;;14.38;71.47;93701.00;5087517;28;20031;-44
2021/11/05 06:45:27;;;;;;;12.77;7.07;;;;;;;14.89;69.65;93708.72;5110389;28;20448;-44
2021/11/05 06:47:53;;;;;;;25.92;10.80;;;;;;;15.64;68.36;93706.41;5110606;28;20020;-46
2021/11/05 06:50:18;;;;;;;22.27;9.70;;;;;;;16.48;65.02;93695.59;5111108;28;20032;-46
2021/11/05 06:52:44;;;;;;;13.30;6.45;;;;;;;17.11;62.01;93701.00;5111096;28;20046;-45
2021/11/05 06:55:09;;;;;;;12.15;6.25;;;;;;;17.54;59.86;93699.31;5111013;27;20023;-45
2021/11/05 06:57:35;;;;;;;19.80;8.48;;;;;;;17.91;59.34;93692.94;5110513;28;20062;-44
2021/11/05 07:00:01;;;;;;;14.65;5.82;;;;;;;18.18;57.50;93698.31;5111014;28;20031;-46
2021/11/05 07:02:27;;;;;;;9.60;6.03;;;;;;;18.18;57.28;93689.94;5109144;28;20026;-45
2021/11/05 07:04:52;;;;;;;9.52;6.38;;;;;;;18.07;57.22;93659.81;5110056;28;20020;-45
2021/11/05 07:07:18;;;;;;;9.70;6.28;;;;;;;19.01;55.17;93701.94;5110361;28;20030;-45
2021/11/05 07:09:43;;;;;;;11.60;6.13;;;;;;;19.37;53.90;93712.78;5110329;28;20043;-48
2021/11/05 07:12:09;;;;;;;13.77;7.15;;;;;;;19.76;52.66;93710.38;5110259;27;20034;-47
2021/11/05 07:14:35;;;;;;;16.38;9.40;;;;;;;20.29;51.75;93703.97;5109927;28;20012;-49
2021/11/05 07:17:01;;;;;;;13.85;7.13;;;;;;;20.64;50.38;93718.03;5110584;28;20623;-46
2021/11/05 07:19:27;;;;;;;9.55;5.20;;;;;;;20.52;48.67;93686.47;5110432;28;20035;-46
2021/11/05 07:21:59;;;;;;;13.52;6.75;;;;;;;21.13;48.13;93713.31;5109950;28;20412;-47
2021/11/05 07:24:28;;;;;;;11.30;6.15;;;;;;;21.43;47.56;93708.72;5110045;28;20020;-47
2021/11/05 07:26:54;;;;;;;13.98;6.40;;;;;;;21.49;47.73;93712.63;5093306;28;20513;-48
2021/11/05 07:29:24;;;;;;;10.23;5.80;;;;;;;21.49;47.22;93704.19;5088340;28;20028;-46
2021/11/05 07:31:49;;;;;;;10.85;5.07;;;;;;;21.35;46.55;93692.16;5089425;28;20096;-45
2021/11/05 07:34:15;;;;;;;12.65;6.20;;;;;;;20.82;48.32;93690.34;5088788;28;20511;-46
2021/11/05 07:36:41;;;;;;;8.00;5.68;;;;;;;21.12;48.14;93684.50;5088886;28;20096;-49
2021/11/05 07:39:07;;;;;;;7.97;5.05;;;;;;;21.49;46.91;93686.59;5088558;28;20107;-46
2021/11/05 07:41:34;;;;;;;9.00;4.90;;;;;;;21.64;46.49;93683.25;5089057;28;20024;-47
2021/11/05 07:44:00;;;;;;;9.70;4.75;;;;;;;22.04;45.41;93688.38;5096100;28;20047;-48
2021/11/05 07:46:27;;;;;;;8.07;4.35;;;;;;;21.77;44.69;93677.72;5098483;28;20024;-46
2021/11/05 07:48:53;;;;;;;6.85;4.50;;;;;;;21.83;45.32;93680.16;5097685;28;20520;-50
2021/11/05 07:51:19;;;;;;;12.18;5.32;;;;;;;21.92;44.34;93684.16;5099799;28;20027;-46
2021/11/05 07:53:44;;;;;;;14.88;6.80;;;;;;;22.66;44.53;93681.88;5097787;28;20024;-46
2021/11/05 07:56:10;;;;;;;8.35;5.10;;;;;;;22.74;44.09;93682.31;5098493;28;20027;-47
2021/11/05 07:58:35;;;;;;;9.00;4.63;;;;;;;22.90;43.54;93685.97;5097539;28;20017;-46
2021/11/05 08:01:01;;;;;;;5.75;4.45;;;;;;;23.18;41.39;93687.44;5092899;28;20666;-54
2021/11/05 08:03:26;;;;;;;9.60;4.78;;;;;;;23.35;41.93;93686.91;5099117;28;20023;-53
2021/11/05 08:05:52;;;;;;;7.75;4.43;;;;;;;23.48;40.18;93677.72;5107583;28;20022;-45
2021/11/05 08:08:17;;;;;;;6.88;4.57;;;;;;;23.20;40.59;93685.44;5109107;28;20106;-47
2021/11/05 08:10:43;;;;;;;7.75;3.60;;;;;;;24.08;38.16;93705.38;5109592;28;20071;-44
2021/11/05 08:13:09;;;;;;;12.93;4.22;;;;;;;24.13;38.74;93690.09;5109128;28;20024;-46
2021/11/05 08:15:34;;;;;;;7.68;4.93;;;;;;;23.77;40.16;93697.50;5108400;28;20038;-47
2021/11/05 08:17:59;;;;;;;8.95;5.10;;;;;;;24.41;39.70;93687.84;5109235;28;20031;-54
2021/11/05 08:20:25;;;;;;;7.32;5.50;;;;;;;25.23;38.73;93677.50;5109398;28;20548;-49
2021/11/05 08:22:50;;;;;;;13.20;6.25;;;;;;;25.58;37.69;93673.34;5095908;28;20513;-49
2021/11/05 08:25:18;;;;;;;8.82;5.28;;;;;;;26.07;36.67;93666.19;5088765;28;20112;-47
2021/11/05 08:27:44;;;;;;;8.77;5.00;;;;;;;26.04;35.43;93686.56;5091789;28;20040;-51
2021/11/05 08:30:13;;;;;;;6.63;3.50;;;;;;;25.70;34.20;93682.31;5100234;28;20057;-49
2021/11/05 08:32:39;;;;;;;8.73;3.75;;;;;;;25.28;34.62;93681.94;5109163;28;20053;-47
2021/11/05 08:35:07;;;;;;;10.15;3.78;;;;;;;25.64;34.34;93687.72;5109444;28;20626;-48
2021/11/05 08:37:33;;;;;;;7.47;4.37;;;;;;;24.83;36.02;93650.31;5109445;28;20027;-50
2021/11/05 08:39:58;;;;;;;7.05;3.60;;;;;;;24.34;36.02;93684.06;5109126;28;20085;-52
2021/11/05 08:42:24;;;;;;;7.03;3.20;;;;;;;23.64;37.67;93691.88;5108808;28;20028;-49
2021/11/05 08:44:50;;;;;;;8.20;3.45;;;;;;;23.85;36.77;93683.78;5108982;28;20032;-46
2021/11/05 08:47:15;;;;;;;6.57;3.42;;;;;;;23.88;36.51;93684.63;5109000;28;20138;-47
2021/11/05 08:49:41;;;;;;;10.95;3.92;;;;;;;23.63;37.79;93677.06;5108858;28;20035;-49
2021/11/05 08:52:07;;;;;;;7.63;2.92;;;;;;;24.15;35.70;93676.06;5108768;28;20088;-48
2021/11/05 08:54:32;;;;;;;6.90;2.95;;;;;;;24.72;33.79;93677.34;5108873;28;20504;-51
2021/11/05 08:56:57;;;;;;;7.38;3.13;;;;;;;24.75;34.46;93681.00;5108685;28;20058;-47
2021/11/05 08:59:24;;;;;;;8.82;3.20;;;;;;;25.63;33.53;93674.94;5104800;28;20101;-50
2021/11/05 09:01:51;;;;;;;6.60;2.83;;;;;;;25.83;32.32;93670.13;5094790;28;20024;-48
2021/11/05 09:04:17;;;;;;;7.45;2.72;;;;;;;26.03;31.59;93673.78;5100060;28;20111;-48
2021/11/05 09:06:46;;;;;;;9.10;3.08;;;;;;;26.63;30.69;93649.97;5101294;28;20036;-45
2021/11/05 09:09:12;;;;;;;8.35;3.30;;;;;;;26.97;30.60;93662.59;5097973;28;20034;-48
2021/11/05 09:11:38;;;;;;;11.75;2.70;;;;;;;27.61;29.37;93661.34;5088284;28;20020;-46
2021/11/05 09:14:04;;;;;;;5.45;2.90;;;;;;;28.07;28.37;93662.91;5098225;28;20533;-47
2021/11/05 09:16:30;;;;;;;5.60;2.53;;;;;;;28.07;28.29;93665.03;5106255;28;20082;-51
2021/11/05 09:18:57;;;;;;;9.18;2.75;;;;;;;28.63;27.66;93672.50;5094626;28;20111;-49
2021/11/05 09:21:22;;;;;;;4.55;2.65;;;;;;;28.10;27.58;93664.44;5087073;28;20051;-54
2021/11/05 09:23:48;;;;;;;8.27;2.67;;;;;;;28.42;27.30;93659.03;5086499;28;20461;-57
2021/11/05 09:26:14;;;;;;;6.88;2.38;;;;;;;28.33;27.33;93660.91;5099410;28;20118;-55
2021/11/05 09:28:40;;;;;;;7.35;2.67;;;;;;;28.08;27.78;93663.63;5108309;28;20043;-56
2021/11/05 09:31:05;;;;;;;10.60;2.55;;;;;;;28.04;27.42;93666.34;5106925;27;20496;-56
2021/11/05 09:33:32;;;;;;;9.80;3.30;;;;;;;27.63;28.40;93665.00;5106947;28;20084;-50
2021/11/05 09:35:57;;;;;;;11.90;3.35;;;;;;;27.89;28.47;93658.72;5107387;28;20123;-49
2021/11/05 09:38:23;;;;;;;7.55;2.65;;;;;;;28.34;27.63;93664.47;5102944;28;20016;-49
2021/11/05 09:40:51;;;;;;;8.27;3.03;;;;;;;28.13;28.14;93659.53;5094546;28;20046;-50
2021/11/05 09:43:19;;;;;;;5.68;2.60;;;;;;;27.74;28.05;93660.38;5094330;28;20510;-49
2021/11/05 09:45:44;;;;;;;8.23;2.42;;;;;;;27.50;28.66;93660.28;5094314;28;20028;-48
2021/11/05 09:48:10;;;;;;;6.53;2.88;;;;;;;27.82;28.07;93654.97;5095677;28;20102;-50
2021/11/05 09:50:38;;;;;;;8.70;3.55;;;;;;;28.26;28.53;93656.41;5095822;28;20054;-49
2021/11/05 09:53:03;;;;;;;6.53;2.80;;;;;;;28.44;27.83;93656.25;5094340;28;20024;-49
2021/11/05 09:55:31;;;;;;;8.57;2.95;;;;;;;28.46;28.03;93653.47;5104730;28;20042;-51
2021/11/05 09:57:56;;;;;;;5.93;2.83;;;;;;;28.62;27.50;93659.69;5107964;28;20023;-50
2021/11/05 10:00:25;;;;;;;7.05;3.42;;;;;;;29.09;27.63;93653.22;5107816;28;20031;-52
2021/11/05 10:02:51;;;;;;;7.85;2.75;;;;;;;28.83;26.03;93649.63;5106159;28;20027;-51
2021/11/05 10:05:17;;;;;;;7.63;2.70;;;;;;;28.91;27.01;93650.59;5107070;28;20032;-50
2021/11/05 10:07:54;;;;;;;10.05;3.03;;;;;;;29.22;25.60;93640.84;5106833;28;20500;-49
2021/11/05 10:10:25;;;;;;;7.90;3.05;;;;;;;29.35;25.75;93644.72;5107218;28;20039;-49
2021/11/05 10:12:57;;;;;;;12.15;3.47;;;;;;;29.26;26.80;93643.78;5107254;28;20055;-48
2021/11/05 10:15:27;;;;;;;6.95;2.33;;;;;;;29.37;25.36;93654.03;5093226;28;20031;-48
2021/11/05 10:18:16;;;;;;;8.60;4.03;;;;;;;29.36;28.49;93646.94;5088123;28;20056;-49
2021/11/05 10:20:44;;;;;;;11.13;2.90;;;;;;;29.73;26.73;93645.75;5086925;28;20043;-47
2021/11/05 10:23:10;;;;;;;7.55;3.15;;;;;;;29.05;26.22;93639.63;5108377;28;20027;-49
2021/11/05 10:25:37;;;;;;;12.38;2.80;;;;;;;28.22;26.77;93633.56;5108481;28;20732;-51
2021/11/05 10:28:10;;;;;;;9.75;2.78;;;;;;;27.95;27.39;93636.22;5107992;28;20040;-63
2021/11/05 10:30:53;;;;;;;6.70;2.85;;;;;;;27.54;28.58;93634.16;5108119;28;20062;-64
2021/11/05 10:33:22;;;;;;;7.00;3.40;;;;;;;28.18;28.67;93639.13;5108333;28;20038;-61
2021/11/05 11:19:33;;;;;;;9.70;3.35;;;;;;;26.33;31.71;93658.03;5100923;28;20034;-60
2021/11/05 11:22:05;;;;;;;12.77;3.75;;;;;;;26.45;32.61;93650.00;5098949;28;20514;-60
2021/11/05 11:24:32;;;;;;;8.50;3.33;;;;;;;27.26;32.02;93645.22;5095955;28;20424;-60
2021/11/05 11:26:59;;;;;;;7.53;2.97;;;;;;;27.44;29.91;93648.72;5098204;28;20054;-59
2021/11/05 11:29:26;;;;;;;10.13;4.10;;;;;;;27.68;30.61;93643.88;5096696;28;20409;-60
2021/11/05 11:31:54;;;;;;;12.50;3.95;;;;;;;27.79;30.29;93648.50;5097489;28;20028;-63
2021/11/05 11:34:20;;;;;;;8.45;3.55;;;;;;;28.17;30.67;93637.69;5092017;28;20040;-63
2021/11/05 11:36:50;;;;;;;7.57;3.67;;;;;;;28.77;28.78;93643.78;5102945;28;20042;-62
2021/11/05 11:39:20;;;;;;;8.35;3.55;;;;;;;28.99;27.77;93635.91;5101810;28;20107;-60
2021/11/05 11:41:46;;;;;;;11.32;4.35;;;;;;;29.18;27.57;93635.78;5104265;28;20035;-60
2021/11/05 11:44:23;;;;;;;8.38;3.80;;;;;;;29.17;27.08;93610.84;5098046;28;20020;-60
2021/11/05 11:46:54;;;;;;;6.95;4.00;;;;;;;28.30;28.84;93625.31;5098682;27;20498;-63
2021/11/05 11:49:37;;;;;;;13.68;3.70;;;;;;;28.23;29.68;93600.97;5100602;28;20061;-60
2021/11/05 11:52:16;;;;;;;9.60;3.13;;;;;;;28.25;29.11;93628.69;5098434;28;20056;-65
2021/11/05 11:54:42;;;;;;;;;;;;;;;27.32;29.32;93616.34;5098894;28;20184;-63
2021/11/05 11:57:22;;;;;;;9.73;3.17;;;;;;;26.64;30.42;93615.31;5099873;28;20021;-65
2021/11/05 12:00:09;;;;;;;6.95;2.72;;;;;;;25.70;31.97;93603.88;5104392;28;20032;-66
2021/11/05 12:02:38;;;;;;;9.48;3.40;;;;;;;25.33;32.95;93612.94;5099826;28;20026;-60
2021/11/05 12:05:24;;;;;;;7.18;2.78;;;;;;;24.45;33.76;93594.94;5098778;28;20047;-61